Time;durP1;ratioP1;P1;durP2;ratioP2;P2;SDS_P1;SDS_P2;PMS_P1;PMS_P2;Temp;Humidity;BMP_temperature;BMP_pressure;BME280_temperature;BME280_humidity;BME280_pressure;Samples;Min_cycle;Max_cycle;Signal;HPM_P1;HPM_P2
2024/04/03 00:01:54;;;;;;;5.07;1.10;;;;;;;8.08;100.00;98261.72;5005376;28;20030;-80
2024/04/03 00:04:19;;;;;;;4.15;0.90;;;;;;;8.01;100.00;98257.34;5009678;28;20022;-80
2024/04/03 00:06:44;;;;;;;2.45;1.05;;;;;;;8.04;100.00;98260.50;5003840;28;20118;-81
2024/04/03 00:09:10;;;;;;;7.85;0.93;;;;;;;7.93;100.00;98236.78;4993812;28;20364;-80
2024/04/03 00:11:35;;;;;;;2.97;0.85;;;;;;;8.24;100.00;98298.28;5000950;28;20098;-82
2024/04/03 00:14:00;;;;;;;3.67;1.10;;;;;;;8.09;100.00;98263.38;4999498;28;20324;-81
2024/04/03 00:16:27;;;;;;;5.00;0.95;;;;;;;8.12;100.00;98257.63;5006530;28;20041;-81
2024/04/03 00:18:52;;;;;;;7.70;1.05;;;;;;;8.37;100.00;98300.19;4999437;28;20014;-80
2024/04/03 00:21:19;;;;;;;2.58;0.85;;;;;;;8.34;100.00;98292.53;5012881;28;20033;-81
2024/04/03 00:23:44;;;;;;;4.85;0.90;;;;;;;8.11;100.00;98255.09;5003114;28;20018;-80
2024/04/03 00:26:10;;;;;;;2.17;0.90;;;;;;;8.49;100.00;98292.41;5014475;28;20065;-81
2024/04/03 00:28:35;;;;;;;1.90;1.05;;;;;;;8.27;100.00;98253.94;5003402;28;20046;-81
2024/04/03 00:31:02;;;;;;;4.45;0.90;;;;;;;8.42;100.00;98262.72;5013020;28;20053;-81
2024/04/03 00:33:28;;;;;;;4.35;0.75;;;;;;;8.47;100.00;98273.72;4991788;28;20031;-81
2024/04/03 00:35:58;;;;;;;5.22;0.93;;;;;;;8.03;100.00;98210.31;5007655;28;20037;-79
2024/04/03 00:38:26;;;;;;;2.03;0.77;;;;;;;7.84;100.00;98178.75;5009841;28;20018;-79
2024/04/03 00:40:59;;;;;;;6.50;0.80;;;;;;;8.30;100.00;98258.91;5005615;28;20034;-78
2024/04/03 00:43:26;;;;;;;2.88;0.77;;;;;;;8.05;100.00;98219.03;4990679;28;20106;-81
2024/04/03 00:45:53;;;;;;;3.92;1.00;;;;;;;8.00;100.00;98205.34;4997513;28;20232;-78
2024/04/03 00:48:20;;;;;;;3.25;0.80;;;;;;;8.23;100.00;98241.91;4999447;28;20049;-79
2024/04/03 00:50:46;;;;;;;1.90;0.93;;;;;;;8.30;100.00;98246.25;4994923;28;20029;-79
2024/04/03 00:53:11;;;;;;;3.65;0.98;;;;;;;8.32;100.00;98240.69;4999721;28;20034;-79
2024/04/03 00:55:37;;;;;;;4.95;0.98;;;;;;;8.30;100.00;98232.78;5000290;28;20026;-79
2024/04/03 00:58:03;;;;;;;5.50;1.10;;;;;;;8.19;100.00;98219.91;5001127;28;20057;-79
2024/04/03 01:00:29;;;;;;;3.05;0.80;;;;;;;8.04;100.00;98197.66;4997473;28;20026;-79
2024/04/03 01:02:55;;;;;;;2.65;0.73;;;;;;;8.02;100.00;98176.34;4996701;28;20031;-79
2024/04/03 01:05:20;;;;;;;2.22;0.80;;;;;;;8.04;100.00;98179.66;4980680;28;20285;-79
2024/04/03 01:07:45;;;;;;;2.15;0.60;;;;;;;8.24;100.00;98216.59;5002579;28;20074;-79
2024/04/03 01:10:11;;;;;;;4.47;0.88;;;;;;;8.22;100.00;98207.88;4995272;28;20105;-79
2024/04/03 01:12:36;;;;;;;1.63;0.73;;;;;;;8.18;100.00;98212.03;4997046;28;20030;-79
2024/04/03 01:15:03;;;;;;;1.23;0.75;;;;;;;7.93;100.00;98201.78;4997066;28;20029;-79
2024/04/03 01:17:30;;;;;;;2.38;0.77;;;;;;;7.77;100.00;98194.06;4990974;28;20427;-79
2024/04/03 01:19:57;;;;;;;2.47;0.80;;;;;;;7.40;100.00;98147.69;4998566;28;20365;-79
2024/04/03 01:22:22;;;;;;;4.03;1.02;;;;;;;7.27;100.00;98142.25;5001303;28;20023;-80
2024/04/03 01:24:48;;;;;;;2.65;0.80;;;;;;;7.40;100.00;98182.69;4998811;28;20022;-79
2024/04/03 01:27:14;;;;;;;3.17;0.70;;;;;;;7.31;100.00;98182.03;4989206;28;20041;-80
2024/04/03 01:29:39;;;;;;;2.45;1.00;;;;;;;7.14;100.00;98162.66;5004872;28;20038;-79
2024/04/03 01:32:06;;;;;;;5.55;1.10;;;;;;;7.07;100.00;98180.59;5001969;28;20026;-80
2024/04/03 01:34:31;;;;;;;7.28;1.00;;;;;;;6.97;100.00;98177.44;4999675;28;20026;-80
2024/04/03 01:36:57;;;;;;;2.28;0.75;;;;;;;7.31;100.00;98224.22;5001534;28;20029;-80
2024/04/03 01:39:23;;;;;;;5.90;0.90;;;;;;;7.08;100.00;98141.94;5004452;28;20027;-80
2024/04/03 01:41:48;;;;;;;3.75;0.70;;;;;;;7.39;100.00;98168.41;5003328;28;20018;-80
2024/04/03 01:44:14;;;;;;;3.88;1.33;;;;;;;7.74;100.00;98202.53;5001333;28;20022;-80
2024/04/03 01:46:40;;;;;;;6.15;0.70;;;;;;;7.76;100.00;98195.09;5004540;28;20044;-80
2024/04/03 01:49:05;;;;;;;2.47;0.70;;;;;;;7.61;100.00;98150.28;4998238;28;20023;-80
2024/04/03 01:51:30;;;;;;;3.95;0.63;;;;;;;8.07;100.00;98200.81;4998243;28;20392;-80
2024/04/03 01:53:56;;;;;;;2.75;0.65;;;;;;;7.98;100.00;98166.16;4994433;28;20019;-80
2024/04/03 01:56:21;;;;;;;1.45;0.52;;;;;;;7.98;100.00;98148.13;4998725;28;20026;-80
2024/04/03 01:58:46;;;;;;;6.70;0.82;;;;;;;8.23;100.00;98161.06;5012727;28;20028;-80
2024/04/03 02:01:11;;;;;;;2.35;0.60;;;;;;;8.30;100.00;98169.97;5004592;28;20022;-80
2024/04/03 02:03:37;;;;;;;3.33;0.95;;;;;;;8.21;100.00;98157.72;5006641;28;20033;-80
2024/04/03 02:06:02;;;;;;;5.32;0.77;;;;;;;8.32;100.00;98178.69;5001198;28;20038;-80
2024/04/03 02:08:28;;;;;;;7.68;0.68;;;;;;;8.37;100.00;98175.38;5007402;28;20027;-80
2024/04/03 02:10:53;;;;;;;3.47;0.95;;;;;;;8.32;100.00;98165.22;5000246;28;20024;-80
2024/04/03 02:13:18;;;;;;;3.85;0.82;;;;;;;8.22;100.00;98160.22;4999411;28;20033;-80
2024/04/03 02:15:54;;;;;;;2.35;0.70;;;;;;;8.35;100.00;98172.88;4990302;28;20030;-80
2024/04/03 02:18:19;;;;;;;2.85;0.60;;;;;;;8.37;100.00;98178.91;4986827;28;20098;-80
2024/04/03 02:20:45;;;;;;;2.42;0.60;;;;;;;8.39;100.00;98170.63;4997164;28;20033;-80
2024/04/03 02:23:10;;;;;;;3.83;0.75;;;;;;;8.35;100.00;98175.56;5003254;28;20037;-79
2024/04/03 02:25:35;;;;;;;4.00;0.70;;;;;;;8.25;100.00;98146.34;5003589;28;20057;-80
2024/04/03 02:28:01;;;;;;;4.50;0.93;;;;;;;8.38;100.00;98185.94;4993059;28;20093;-80
2024/04/03 02:30:26;;;;;;;1.67;0.70;;;;;;;8.33;100.00;98172.25;5003327;28;20039;-81
2024/04/03 02:32:51;;;;;;;3.58;0.50;;;;;;;7.90;100.00;98119.50;4994554;28;20061;-80
2024/04/03 02:35:17;;;;;;;4.28;1.08;;;;;;;7.96;100.00;98125.94;5000106;28;20030;-80
2024/04/03 02:37:42;;;;;;;2.13;0.52;;;;;;;8.25;100.00;98153.56;5004175;28;20216;-80
2024/04/03 02:40:08;;;;;;;1.15;0.55;;;;;;;8.08;100.00;98116.25;5008091;28;20030;-80
2024/04/03 02:42:33;;;;;;;3.13;0.80;;;;;;;7.86;100.00;98085.97;5000901;28;20240;-80
2024/04/03 02:44:58;;;;;;;6.28;1.02;;;;;;;8.17;100.00;98129.53;4999650;28;20347;-80
2024/04/03 02:47:25;;;;;;;1.80;0.63;;;;;;;8.32;100.00;98149.03;4994380;28;20106;-80
2024/04/03 02:49:50;;;;;;;4.65;1.15;;;;;;;8.12;100.00;98112.13;4997155;28;20035;-80
2024/04/03 02:52:16;;;;;;;3.47;0.80;;;;;;;8.19;100.00;98127.47;4995741;28;20031;-79
2024/04/03 02:54:42;;;;;;;2.40;0.70;;;;;;;8.07;100.00;98101.13;5004061;28;20026;-80
2024/04/03 02:57:07;;;;;;;2.13;0.70;;;;;;;8.38;100.00;98132.03;4997925;28;20026;-80
2024/04/03 02:59:35;;;;;;;3.08;0.70;;;;;;;8.49;100.00;98127.97;4998832;28;20078;-80
2024/04/03 03:02:01;;;;;;;3.50;0.65;;;;;;;8.29;100.00;98090.16;5001513;28;20269;-80
2024/04/03 03:04:26;;;;;;;1.80;0.57;;;;;;;8.51;100.00;98115.94;5014075;23;20042;-80
2024/04/03 03:06:52;;;;;;;2.88;0.60;;;;;;;8.70;100.00;98129.63;5011008;28;20221;-79
2024/04/03 03:09:20;;;;;;;5.63;0.60;;;;;;;8.76;100.00;98112.59;5002516;28;20034;-79
2024/04/03 03:11:45;;;;;;;2.75;0.60;;;;;;;8.79;100.00;98093.28;4989944;28;20388;-80
2024/04/03 03:14:11;;;;;;;1.50;0.50;;;;;;;8.82;100.00;98116.31;4991925;28;20026;-79
2024/04/03 03:16:36;;;;;;;4.45;0.90;;;;;;;8.79;100.00;98117.56;4995103;28;20034;-79
2024/04/03 03:19:01;;;;;;;3.85;0.73;;;;;;;8.60;100.00;98081.50;4986835;28;20023;-79
2024/04/03 03:21:27;;;;;;;3.85;0.70;;;;;;;8.71;100.00;98104.31;4985214;28;20038;-79
2024/04/03 03:23:52;;;;;;;1.55;0.60;;;;;;;8.77;100.00;98115.06;4992036;28;20337;-79
2024/04/03 03:26:17;;;;;;;2.67;0.50;;;;;;;8.62;100.00;98071.34;5007278;28;20061;-79
2024/04/03 03:28:42;;;;;;;2.35;0.60;;;;;;;8.54;100.00;98058.91;5009779;28;20033;-79
2024/04/03 03:31:08;;;;;;;1.90;0.63;;;;;;;8.78;100.00;98078.97;4985940;28;20034;-79
2024/04/03 03:33:35;;;;;;;1.55;0.50;;;;;;;8.78;100.00;98081.69;5006297;28;20030;-79
2024/04/03 03:36:01;;;;;;;4.15;1.02;;;;;;;8.76;100.00;98072.13;4992130;28;20026;-80
2024/04/03 03:38:26;;;;;;;3.90;0.85;;;;;;;8.70;100.00;98048.72;4984577;28;20018;-79
2024/04/03 03:40:51;;;;;;;4.30;0.90;;;;;;;8.87;100.00;98065.28;4992942;28;20106;-79
2024/04/03 03:43:17;;;;;;;3.45;0.50;;;;;;;8.82;100.00;98056.97;4989974;28;20053;-79
2024/04/03 03:45:52;;;;;;;0.93;0.32;;;;;;;8.86;100.00;98064.44;4993864;28;20033;-79
2024/04/03 03:48:20;;;;;;;1.63;0.60;;;;;;;8.85;100.00;98056.56;5007810;28;20042;-80
2024/04/03 03:53:32;;;;;;;1.60;0.73;;;;;;;8.90;100.00;98041.38;5008394;28;20278;-79
2024/04/03 03:56:08;;;;;;;3.03;1.33;;;;;;;8.86;100.00;98047.44;4996909;28;20030;-79
2024/04/03 03:58:33;;;;;;;6.47;0.85;;;;;;;8.67;100.00;98022.16;4985183;28;20345;-79
2024/04/03 04:01:03;;;;;;;3.58;0.93;;;;;;;8.71;100.00;98034.19;5007780;28;20022;-79
2024/04/03 04:03:28;;;;;;;2.97;0.80;;;;;;;8.75;100.00;98040.78;4990155;28;20018;-85
2024/04/03 04:06:00;;;;;;;3.40;0.73;;;;;;;8.68;100.00;98030.03;4987778;28;20064;-86
2024/04/03 04:08:26;;;;;;;2.05;0.70;;;;;;;8.74;100.00;98039.16;4970317;23;20042;-52
2024/04/03 04:10:55;;;;;;;1.75;0.50;;;;;;;8.71;100.00;98040.41;4954019;28;20118;-53
2024/04/03 04:13:21;;;;;;;2.63;0.60;;;;;;;8.80;100.00;98032.91;4955722;28;20026;-53
2024/04/03 04:15:47;;;;;;;2.35;0.98;;;;;;;8.80;100.00;98035.59;4954647;28;20494;-53
2024/04/03 04:18:14;;;;;;;2.83;1.05;;;;;;;8.76;100.00;98031.69;4949800;28;20393;-53
2024/04/03 04:20:39;;;;;;;4.03;0.82;;;;;;;8.74;100.00;98036.47;4951387;28;20046;-53
2024/04/03 04:23:05;;;;;;;2.83;0.60;;;;;;;8.73;100.00;98048.28;4955667;28;20460;-53
2024/04/03 04:25:30;;;;;;;1.95;0.70;;;;;;;8.75;100.00;98052.44;4958113;28;20037;-53
2024/04/03 04:27:56;;;;;;;1.42;0.43;;;;;;;8.71;100.00;98044.97;4948882;28;20101;-53
2024/04/03 04:30:21;;;;;;;2.80;0.88;;;;;;;8.67;100.00;98049.13;4950176;28;20038;-53
2024/04/03 04:32:46;;;;;;;5.72;0.98;;;;;;;8.66;100.00;98047.47;4953673;28;20051;-53
2024/04/03 04:35:12;;;;;;;3.40;0.43;;;;;;;8.64;100.00;98054.94;4954790;28;20030;-53
2024/04/03 04:37:37;;;;;;;3.63;0.90;;;;;;;8.43;100.00;98020.94;4952583;28;20837;-53
2024/04/03 04:40:05;;;;;;;1.45;0.50;;;;;;;8.55;100.00;98048.94;4955066;28;20024;-53
2024/04/03 04:42:32;;;;;;;2.20;0.57;;;;;;;8.55;100.00;98046.25;4957493;28;20037;-53
2024/04/03 04:44:58;;;;;;;2.00;0.70;;;;;;;8.57;100.00;98049.56;4958031;28;20037;-54
2024/04/03 04:47:24;;;;;;;3.85;0.70;;;;;;;8.56;100.00;98048.72;4954229;28;20578;-53
2024/04/03 04:49:49;;;;;;;3.90;0.70;;;;;;;8.54;100.00;98045.41;4955709;28;20035;-54
2024/04/03 04:52:14;;;;;;;4.30;0.80;;;;;;;8.48;100.00;98050.78;4954944;28;20038;-53
2024/04/03 04:54:40;;;;;;;1.35;0.45;;;;;;;8.54;100.00;98047.25;4956477;28;20086;-53
2024/04/03 04:57:09;;;;;;;2.42;0.50;;;;;;;8.54;100.00;98039.16;4950636;28;20442;-53
2024/04/03 04:59:38;;;;;;;1.33;0.40;;;;;;;8.55;100.00;98046.25;4953253;28;20374;-53
2024/04/03 05:02:03;;;;;;;3.17;0.55;;;;;;;8.60;100.00;98042.91;4961725;28;20089;-52
2024/04/03 05:04:28;;;;;;;2.17;0.98;;;;;;;8.59;100.00;98043.94;4953549;28;20054;-52
2024/04/03 05:06:57;;;;;;;4.45;0.70;;;;;;;8.63;100.00;98046.03;4953855;28;20059;-52
2024/04/03 05:09:23;;;;;;;0.40;0.27;;;;;;;8.64;100.00;98044.16;4953617;28;20475;-52
2024/04/03 05:11:49;;;;;;;1.02;0.40;;;;;;;8.73;100.00;98038.34;4954022;28;20023;-52
2024/04/03 05:14:14;;;;;;;3.42;0.65;;;;;;;8.81;100.00;98044.53;4947185;28;20090;-52
2024/04/03 05:16:39;;;;;;;1.08;0.40;;;;;;;8.84;100.00;98044.94;4958745;28;20043;-52
2024/04/03 05:19:05;;;;;;;3.38;0.75;;;;;;;8.88;100.00;98045.34;4946544;28;20027;-51
2024/04/03 05:21:31;;;;;;;1.88;0.57;;;;;;;8.91;100.00;98050.34;4958544;28;20050;-52
2024/04/03 05:23:57;;;;;;;2.67;0.40;;;;;;;8.98;100.00;98046.56;4949327;28;20025;-52
2024/04/03 05:26:22;;;;;;;3.47;0.50;;;;;;;8.96;100.00;98048.66;4953943;28;20027;-52
2024/04/03 05:28:47;;;;;;;3.50;0.80;;;;;;;9.03;100.00;98055.91;4946792;28;20032;-52
2024/04/03 05:31:22;;;;;;;5.00;0.82;;;;;;;9.18;100.00;98051.91;4953967;28;20054;-52
2024/04/03 05:33:47;;;;;;;2.58;0.70;;;;;;;9.15;100.00;98051.50;4948220;28;20027;-52
2024/04/03 05:36:12;;;;;;;3.35;0.80;;;;;;;9.25;100.00;98069.94;4954193;28;20034;-52
2024/04/03 05:38:39;;;;;;;2.38;1.00;;;;;;;9.26;100.00;98075.13;4951582;28;20463;-52
2024/04/03 05:41:05;;;;;;;1.88;0.70;;;;;;;9.30;100.00;98075.53;4955713;28;20046;-52
2024/04/03 05:43:31;;;;;;;1.98;0.75;;;;;;;9.26;100.00;98064.34;4956184;28;20031;-52
2024/04/03 05:45:57;;;;;;;4.05;1.13;;;;;;;9.13;100.00;98072.47;4955279;28;20035;-52
2024/04/03 05:48:23;;;;;;;3.20;1.33;;;;;;;9.03;100.00;98064.81;4950122;28;20109;-52
2024/04/03 05:50:59;;;;;;;2.30;1.25;;;;;;;8.91;100.00;98070.03;4954224;28;20031;-52
2024/04/03 05:53:25;;;;;;;3.03;1.02;;;;;;;8.89;100.00;98074.00;4951513;28;20077;-52
2024/04/03 05:55:58;;;;;;;4.82;0.77;;;;;;;8.85;100.00;98078.97;4953991;28;20031;-52
2024/04/03 05:58:24;;;;;;;2.33;0.80;;;;;;;8.82;100.00;98074.00;4954317;28;20019;-52
2024/04/03 06:00:53;;;;;;;2.60;0.80;;;;;;;8.83;100.00;98074.81;4962391;28;20069;-52
2024/04/03 06:03:19;;;;;;;;;;;;;;;8.93;100.00;98081.47;4954165;28;20038;-52
2024/04/03 06:05:55;;;;;;;1.95;0.90;;;;;;;8.98;100.00;98084.31;4958000;28;19914;-52
2024/04/03 06:08:21;;;;;;;5.03;1.05;;;;;;;9.09;100.00;98079.31;4936098;29;20030;-52
2024/04/03 06:10:47;;;;;;;3.40;1.13;;;;;;;9.34;100.00;98093.78;4957953;28;20360;-52
2024/04/03 06:13:13;;;;;;;2.38;0.90;;;;;;;9.58;100.00;98100.34;4949102;28;20055;-52
2024/04/03 06:15:38;;;;;;;2.35;1.15;;;;;;;9.96;100.00;98083.34;4957668;28;20077;-52
2024/04/03 06:18:04;;;;;;;5.53;1.20;;;;;;;10.33;100.00;98096.22;4955970;28;20034;-52
2024/04/03 06:20:29;;;;;;;2.88;1.20;;;;;;;10.67;100.00;98087.63;4960072;28;20102;-52
2024/04/03 06:22:55;;;;;;;2.15;0.93;;;;;;;11.03;100.00;98087.91;4963434;28;20038;-52
2024/04/03 06:25:21;;;;;;;9.60;1.00;;;;;;;10.86;100.00;98098.47;4961829;28;20019;-52
2024/04/03 06:27:46;;;;;;;5.05;0.98;;;;;;;10.23;100.00;98108.31;4954998;28;20097;-52
2024/04/03 06:30:12;;;;;;;3.28;0.95;;;;;;;10.05;100.00;98113.63;4956163;28;20341;-52
2024/04/03 06:32:39;;;;;;;4.85;0.98;;;;;;;9.92;100.00;98117.22;4958515;28;20109;-52
2024/04/03 06:35:05;;;;;;;2.22;0.90;;;;;;;9.90;100.00;98121.19;4952715;28;20050;-52
2024/04/03 06:37:30;;;;;;;3.60;1.08;;;;;;;9.95;100.00;98134.88;4959692;28;20031;-52
2024/04/03 06:39:56;;;;;;;4.50;0.98;;;;;;;9.89;100.00;98131.16;4953710;28;20019;-52
2024/04/03 06:42:21;;;;;;;3.88;0.98;;;;;;;9.84;100.00;98144.50;4955794;28;20797;-52
2024/04/03 06:44:46;;;;;;;8.73;1.45;;;;;;;9.67;100.00;98144.16;4953809;28;20039;-52
2024/04/03 06:47:12;;;;;;;5.05;1.10;;;;;;;9.71;100.00;98148.06;4957242;28;20054;-52
2024/04/03 06:49:37;;;;;;;2.33;0.88;;;;;;;9.78;100.00;98140.78;4956119;28;20467;-52
2024/04/03 06:52:03;;;;;;;4.78;1.08;;;;;;;9.62;100.00;98139.38;4956138;28;20023;-52
2024/04/03 06:54:28;;;;;;;3.15;1.02;;;;;;;9.35;100.00;98133.25;4956638;28;20459;-52
2024/04/03 06:56:54;;;;;;;5.00;0.80;;;;;;;9.21;100.00;98129.75;4953137;28;20092;-52
2024/04/03 06:59:19;;;;;;;8.82;0.85;;;;;;;9.02;100.00;98129.78;4954919;28;20026;-52
2024/04/03 07:01:47;;;;;;;4.50;1.23;;;;;;;8.86;100.00;98115.69;4958453;28;20534;-52
2024/04/03 07:04:13;;;;;;;2.40;1.23;;;;;;;8.85;100.00;98126.69;4955440;28;20035;-52
2024/04/03 07:06:38;;;;;;;5.55;1.38;;;;;;;9.05;100.00;98126.69;4947700;28;20054;-52
2024/04/03 07:09:04;;;;;;;4.90;1.70;;;;;;;9.37;100.00;98130.31;4956492;28;20023;-52
2024/04/03 07:11:31;;;;;;;2.45;1.20;;;;;;;9.66;100.00;98134.38;4958689;28;20077;-52
2024/04/03 07:13:56;;;;;;;2.13;1.10;;;;;;;9.82;100.00;98141.16;4957946;28;20035;-52
2024/04/03 07:16:24;;;;;;;4.80;1.45;;;;;;;9.81;100.00;98137.66;4953623;28;20023;-52
2024/04/03 07:18:56;;;;;;;4.75;1.20;;;;;;;9.77;100.00;98136.44;4951189;28;20035;-52
2024/04/03 07:21:21;;;;;;;7.13;1.67;;;;;;;9.66;100.00;98140.59;4956593;28;20118;-52
2024/04/03 07:23:47;;;;;;;4.97;1.55;;;;;;;9.62;100.00;98157.47;4959374;28;20114;-52
2024/04/03 07:26:13;;;;;;;2.30;1.23;;;;;;;9.50;100.00;98186.16;4955939;28;20483;-52
2024/04/03 07:28:38;;;;;;;3.25;1.20;;;;;;;9.45;100.00;98194.91;4955324;28;20078;-52
2024/04/03 07:31:04;;;;;;;4.72;1.25;;;;;;;9.15;100.00;98195.38;4957048;28;20078;-52
2024/04/03 07:33:29;;;;;;;2.97;1.27;;;;;;;9.00;100.00;98198.28;4954393;28;20062;-52
2024/04/03 07:35:55;;;;;;;5.32;1.10;;;;;;;8.85;100.00;98192.25;4956033;28;20041;-52
2024/04/03 07:38:20;;;;;;;4.40;0.70;;;;;;;8.72;100.00;98203.03;4956728;28;20075;-52
2024/04/03 07:40:54;;;;;;;5.95;0.90;;;;;;;8.78;100.00;98207.63;4956108;28;20019;-52
2024/04/03 07:43:19;;;;;;;4.75;1.30;;;;;;;8.80;100.00;98216.31;4960709;28;20176;-52
2024/04/03 07:45:44;;;;;;;3.63;1.00;;;;;;;8.64;100.00;98212.16;4956405;28;20027;-52
2024/04/03 07:48:10;;;;;;;3.88;1.45;;;;;;;8.67;100.00;98210.91;4956977;28;20030;-52
2024/04/03 07:50:35;;;;;;;1.73;1.30;;;;;;;8.71;100.00;98210.31;4958338;28;20110;-52
2024/04/03 07:53:00;;;;;;;3.40;1.00;;;;;;;8.96;100.00;98209.69;4954606;28;20050;-52
2024/04/03 07:55:26;;;;;;;2.10;1.00;;;;;;;9.19;100.00;98198.47;4950804;28;20027;-52
2024/04/03 07:57:51;;;;;;;5.68;1.20;;;;;;;9.44;100.00;98196.78;4955609;28;20039;-52
2024/04/03 08:00:18;;;;;;;2.97;1.17;;;;;;;9.70;100.00;98205.84;4955262;28;20051;-52
2024/04/03 08:02:43;;;;;;;3.83;0.95;;;;;;;9.92;100.00;98197.47;4956392;28;20475;-52
2024/04/03 08:05:13;;;;;;;2.88;1.05;;;;;;;9.92;100.00;98189.34;4948559;28;20122;-52
2024/04/03 08:07:40;;;;;;;2.95;1.00;;;;;;;10.07;100.00;98195.31;4947050;28;20031;-52
2024/04/03 08:10:07;;;;;;;3.70;1.10;;;;;;;10.35;100.00;98180.63;4946091;28;20027;-52
2024/04/03 08:12:34;;;;;;;2.45;1.13;;;;;;;10.51;100.00;98185.53;4954589;28;20023;-52
2024/04/03 08:15:00;;;;;;;7.03;1.05;;;;;;;10.28;100.00;98183.41;4954366;28;20078;-52
2024/04/03 08:17:26;;;;;;;4.38;1.00;;;;;;;10.28;100.00;98186.09;4952211;28;20038;-52
2024/04/03 08:19:56;;;;;;;5.22;1.40;;;;;;;10.15;100.00;98169.91;4953261;28;20037;-52
2024/04/03 08:22:23;;;;;;;5.75;1.13;;;;;;;10.15;100.00;98172.63;4950434;28;20502;-52
2024/04/03 08:24:51;;;;;;;3.95;1.10;;;;;;;10.17;100.00;98174.06;4952941;28;20134;-52
2024/04/03 08:27:18;;;;;;;1.98;0.77;;;;;;;10.26;100.00;98167.34;4953495;28;20037;-52
2024/04/03 08:29:45;;;;;;;2.75;0.80;;;;;;;10.37;100.00;98171.25;4934536;29;20055;-52
2024/04/03 08:32:12;;;;;;;3.30;0.70;;;;;;;10.54;100.00;98168.88;4953129;28;20059;-52
2024/04/03 08:34:37;;;;;;;2.03;0.85;;;;;;;10.61;100.00;98169.66;4953679;28;20106;-52
2024/04/03 08:37:06;;;;;;;3.97;1.13;;;;;;;10.60;100.00;98173.41;4954243;28;20038;-52
2024/04/03 08:39:33;;;;;;;3.05;1.27;;;;;;;10.82;100.00;98173.03;4949862;28;20015;-53
2024/04/03 08:42:00;;;;;;;3.08;0.90;;;;;;;10.94;100.00;98163.16;4951629;28;20045;-52
2024/04/03 08:44:30;;;;;;;2.95;1.02;;;;;;;11.11;100.00;98155.31;4954741;28;20035;-52
2024/04/03 08:46:57;;;;;;;3.92;0.77;;;;;;;11.19;100.00;98153.13;4953570;28;20458;-53
2024/04/03 08:49:28;;;;;;;2.25;0.82;;;;;;;11.20;100.00;98148.53;4953396;28;20035;-52
2024/04/03 08:52:13;;;;;;;5.32;1.13;;;;;;;11.27;100.00;98154.72;4952655;28;20431;-52
2024/04/03 08:54:42;;;;;;;1.85;0.60;;;;;;;11.25;100.00;98128.94;4954018;28;20224;-52
2024/04/03 08:57:09;;;;;;;2.20;0.82;;;;;;;11.35;100.00;98137.38;4950006;28;20093;-52
2024/04/03 08:59:38;;;;;;;1.85;0.70;;;;;;;11.50;100.00;98140.53;4940461;29;20034;-52
2024/04/03 09:02:04;;;;;;;3.25;1.10;;;;;;;11.63;100.00;98140.38;4950147;28;20027;-50
2024/04/03 09:04:38;;;;;;;3.17;1.38;;;;;;;11.71;100.00;98119.44;4995222;23;20048;-78
2024/04/03 09:07:08;;;;;;;1.55;0.63;;;;;;;11.61;100.00;98063.91;4995522;28;20030;-82
2024/04/03 09:10:06;;;;;;;6.70;1.20;;;;;;;12.45;100.00;98114.69;4989206;28;20094;-79
2024/04/03 09:12:32;;;;;;;4.57;1.02;;;;;;;12.24;100.00;98088.94;4975755;28;20034;-75
2024/04/03 09:15:10;;;;;;;7.20;1.50;;;;;;;12.45;100.00;98126.38;4988991;28;20022;-76
2024/04/03 09:17:35;;;;;;;2.28;1.00;;;;;;;12.30;100.00;98111.59;4983991;23;20053;-65
2024/04/03 09:20:01;;;;;;;3.75;1.20;;;;;;;12.31;100.00;98100.50;4942785;28;20032;-69
2024/04/03 09:22:26;;;;;;;5.25;1.58;;;;;;;12.37;100.00;98101.47;4969346;28;20031;-65
2024/04/03 09:24:52;;;;;;;3.17;1.10;;;;;;;12.26;100.00;98087.66;4981460;28;20046;-65
2024/04/03 09:27:17;;;;;;;2.80;1.00;;;;;;;12.20;100.00;98101.28;4972722;28;20023;-64
2024/04/03 09:29:54;;;;;;;1.85;0.98;;;;;;;11.99;100.00;98091.78;4976629;28;20077;-64
2024/04/03 09:32:20;;;;;;;2.72;1.00;;;;;;;12.26;100.00;98090.34;4972167;28;20027;-64
2024/04/03 09:34:47;;;;;;;1.90;0.90;;;;;;;12.50;100.00;98085.81;4976035;28;20398;-65
2024/04/03 09:37:12;;;;;;;2.75;0.95;;;;;;;12.67;100.00;98085.13;4977137;28;20455;-64
2024/04/03 09:39:38;;;;;;;2.17;0.80;;;;;;;13.02;100.00;98078.84;4978353;28;20109;-64
2024/04/03 09:42:06;;;;;;;2.85;0.88;;;;;;;13.07;100.00;98073.53;4973636;28;20497;-65
2024/04/03 09:44:36;;;;;;;4.47;0.93;;;;;;;13.21;100.00;98071.44;4974474;28;20141;-69
2024/04/03 09:47:11;;;;;;;5.65;0.80;;;;;;;13.18;100.00;98070.00;4982256;28;20022;-64
2024/04/03 09:49:44;;;;;;;2.72;0.90;;;;;;;13.29;100.00;98073.81;4957371;28;20035;-64
2024/04/03 09:52:11;;;;;;;3.03;0.60;;;;;;;13.62;100.00;98072.28;4974713;28;20041;-64
2024/04/03 09:54:37;;;;;;;1.55;0.68;;;;;;;13.99;100.00;98065.44;4955676;29;20023;-64
2024/04/03 09:57:04;;;;;;;3.38;0.80;;;;;;;14.49;100.00;98063.88;4976046;28;20039;-64
2024/04/03 09:59:30;;;;;;;3.95;0.68;;;;;;;14.42;100.00;98055.03;4974167;28;20033;-64
2024/04/03 10:01:55;;;;;;;2.80;0.80;;;;;;;15.13;100.00;98049.88;4974089;28;20019;-64
2024/04/03 10:04:21;;;;;;;1.17;0.60;;;;;;;15.46;100.00;98045.41;4976369;28;20034;-68
2024/04/03 10:06:48;;;;;;;2.22;1.10;;;;;;;16.02;100.00;98046.06;4969059;28;20035;-66
2024/04/03 10:09:24;;;;;;;2.25;0.60;;;;;;;16.16;100.00;98044.56;4963262;28;20030;-65
2024/04/03 10:12:00;;;;;;;3.00;0.73;;;;;;;16.11;100.00;98044.53;4970521;28;20125;-66
2024/04/03 10:14:35;;;;;;;3.85;0.75;;;;;;;16.69;100.00;98042.03;4972411;28;20030;-64
2024/04/03 10:17:01;;;;;;;1.42;0.70;;;;;;;17.20;100.00;98039.66;4970412;28;20015;-65
2024/04/03 10:19:31;;;;;;;2.78;0.90;;;;;;;18.35;100.00;98041.41;4971691;28;20109;-64
2024/04/03 10:22:01;;;;;;;4.18;0.80;;;;;;;19.69;100.00;98039.31;4973200;28;20023;-63
2024/04/03 10:24:30;;;;;;;2.75;0.70;;;;;;;21.22;95.18;98031.84;4971571;28;20105;-64
2024/04/03 10:26:56;;;;;;;;;;;;;;;21.62;86.07;98016.84;4965851;28;20030;-64
2024/04/03 10:29:21;;;;;;;2.50;0.73;;;;;;;20.61;85.88;98024.19;4974177;28;19914;-64
2024/04/03 10:31:47;;;;;;;0.60;0.40;;;;;;;18.83;94.91;98024.72;4976018;28;20065;-63
2024/04/03 10:34:20;;;;;;;1.85;0.77;;;;;;;17.42;97.35;98020.38;4974649;28;20027;-64
2024/04/03 10:36:48;;;;;;;2.05;0.60;;;;;;;16.54;100.00;98029.06;4970459;28;20023;-63
2024/04/03 10:39:14;;;;;;;4.93;0.52;;;;;;;15.80;100.00;98024.31;4973672;28;20447;-64
2024/04/03 10:41:56;;;;;;;2.50;0.95;;;;;;;14.90;100.00;98024.47;4973062;28;20019;-63
2024/04/03 10:44:21;;;;;;;1.10;0.68;;;;;;;14.24;100.00;98026.16;4973786;28;20041;-63
2024/04/03 10:46:47;;;;;;;2.15;0.60;;;;;;;13.57;100.00;98034.97;4976182;28;20031;-63
2024/04/03 10:49:12;;;;;;;5.93;0.80;;;;;;;13.20;100.00;98045.31;4978480;28;20126;-64
2024/04/03 10:51:38;;;;;;;1.77;0.55;;;;;;;13.04;100.00;98053.13;4973075;28;20086;-64
2024/04/03 10:54:04;;;;;;;4.18;1.08;;;;;;;13.04;100.00;98044.16;4974484;28;20097;-65
2024/04/03 10:56:34;;;;;;;2.55;0.50;;;;;;;12.33;100.00;98049.56;4969767;28;20414;-65
2024/04/03 10:59:00;;;;;;;1.33;0.45;;;;;;;12.01;100.00;98055.25;4976701;28;20038;-65
2024/04/03 11:01:29;;;;;;;1.40;0.40;;;;;;;12.06;100.00;98068.13;4978826;28;20027;-65
2024/04/03 11:03:55;;;;;;;0.80;0.22;;;;;;;12.00;100.00;98061.75;4974148;28;20026;-71
2024/04/03 11:06:20;;;;;;;0.68;0.30;;;;;;;11.87;100.00;98070.06;4976810;28;20026;-65
2024/04/03 11:08:47;;;;;;;0.35;0.10;;;;;;;11.70;100.00;98069.84;4976906;28;20031;-65
2024/04/03 11:11:13;;;;;;;0.50;0.30;;;;;;;11.49;100.00;98079.25;4976063;28;20038;-64
2024/04/03 11:13:49;;;;;;;0.28;0.10;;;;;;;11.35;100.00;98066.94;4980181;28;20035;-63
2024/04/03 11:16:14;;;;;;;2.50;0.30;;;;;;;11.46;100.00;98079.72;4977522;28;20049;-67
2024/04/03 11:18:43;;;;;;;0.45;0.13;;;;;;;11.51;100.00;98070.91;4977959;28;20035;-68
2024/04/03 11:21:09;;;;;;;0.32;0.20;;;;;;;11.73;100.00;98050.41;4979025;28;20391;-64
2024/04/03 11:23:37;;;;;;;0.55;0.30;;;;;;;11.90;100.00;98066.06;4979124;28;20043;-65
2024/04/03 11:26:03;;;;;;;1.03;0.27;;;;;;;12.03;100.00;98068.59;4974946;28;20026;-63
2024/04/03 11:28:29;;;;;;;0.10;0.10;;;;;;;12.17;100.00;98064.63;4975045;28;20270;-64
2024/04/03 11:30:55;;;;;;;0.10;0.10;;;;;;;12.21;100.00;98070.41;4978423;28;20025;-66
2024/04/03 11:33:20;;;;;;;0.40;0.15;;;;;;;12.29;100.00;98061.94;4977708;28;20382;-64